sensor_id;sensor_type;location;lat;lon;timestamp;temperature;humidity
32769;DHT22;23049;54.304;8.826;2022-11-20T00:00:46;1.80;99.90
32769;DHT22;23049;54.304;8.826;2022-11-20T00:03:12;1.80;99.90
32769;DHT22;23049;54.304;8.826;2022-11-20T00:05:37;1.90;99.90
32769;DHT22;23049;54.304;8.826;2022-11-20T00:08:03;1.90;99.90
32769;DHT22;23049;54.304;8.826;2022-11-20T00:10:29;1.90;99.90
32769;DHT22;23049;54.304;8.826;2022-11-20T00:12:54;1.90;99.90
32769;DHT22;23049;54.304;8.826;2022-11-20T00:15:20;1.90;99.90
32769;DHT22;23049;54.304;8.826;2022-11-20T00:17:45;1.90;99.90
32769;DHT22;23049;54.304;8.826;2022-11-20T00:20:11;1.90;99.90
32769;DHT22;23049;54.304;8.826;2022-11-20T00:22:37;1.90;99.90
32769;DHT22;23049;54.304;8.826;2022-11-20T00:25:02;1.90;99.90
32769;DHT22;23049;54.304;8.826;2022-11-20T00:27:28;1.90;99.90
32769;DHT22;23049;54.304;8.826;2022-11-20T00:29:53;1.80;99.90
32769;DHT22;23049;54.304;8.826;2022-11-20T00:32:19;1.80;99.90
32769;DHT22;23049;54.304;8.826;2022-11-20T00:34:44;1.80;99.90
32769;DHT22;23049;54.304;8.826;2022-11-20T00:37:10;1.80;99.90
32769;DHT22;23049;54.304;8.826;2022-11-20T00:39:35;1.80;99.90
32769;DHT22;23049;54.304;8.826;2022-11-20T00:42:01;1.80;99.90
32769;DHT22;23049;54.304;8.826;2022-11-20T00:44:27;1.80;99.90
32769;DHT22;23049;54.304;8.826;2022-11-20T00:46:52;1.80;99.90
32769;DHT22;23049;54.304;8.826;2022-11-20T00:49:18;1.80;99.90
32769;DHT22;23049;54.304;8.826;2022-11-20T00:51:43;1.70;99.90
32769;DHT22;23049;54.304;8.826;2022-11-20T00:54:09;1.70;99.90
32769;DHT22;23049;54.304;8.826;2022-11-20T00:56:34;1.70;99.90
32769;DHT22;23049;54.304;8.826;2022-11-20T00:59:00;1.70;99.90
32769;DHT22;23049;54.304;8.826;2022-11-20T01:01:26;1.70;99.90
32769;DHT22;23049;54.304;8.826;2022-11-20T01:03:52;1.70;99.90
32769;DHT22;23049;54.304;8.826;2022-11-20T01:06:19;1.70;99.90
32769;DHT22;23049;54.304;8.826;2022-11-20T01:08:45;1.70;99.90
32769;DHT22;23049;54.304;8.826;2022-11-20T01:11:12;1.70;99.90
32769;DHT22;23049;54.304;8.826;2022-11-20T01:13:38;1.70;99.90
32769;DHT22;23049;54.304;8.826;2022-11-20T01:18:30;1.70;99.90
32769;DHT22;23049;54.304;8.826;2022-11-20T01:20:55;1.60;99.90
32769;DHT22;23049;54.304;8.826;2022-11-20T01:23:24;1.60;99.90
32769;DHT22;23049;54.304;8.826;2022-11-20T01:25:50;1.60;99.90
32769;DHT22;23049;54.304;8.826;2022-11-20T01:28:15;1.60;99.90
32769;DHT22;23049;54.304;8.826;2022-11-20T01:30:41;1.60;99.90
32769;DHT22;23049;54.304;8.826;2022-11-20T01:33:06;1.60;99.90
32769;DHT22;23049;54.304;8.826;2022-11-20T01:35:32;1.50;99.90
32769;DHT22;23049;54.304;8.826;2022-11-20T01:37:57;1.50;99.90
32769;DHT22;23049;54.304;8.826;2022-11-20T01:40:23;1.50;99.90
32769;DHT22;23049;54.304;8.826;2022-11-20T01:42:52;1.50;99.90
32769;DHT22;23049;54.304;8.826;2022-11-20T01:48:12;1.50;99.90
32769;DHT22;23049;54.304;8.826;2022-11-20T01:50:38;1.40;99.90
32769;DHT22;23049;54.304;8.826;2022-11-20T01:53:05;1.40;99.90
32769;DHT22;23049;54.304;8.826;2022-11-20T01:55:32;1.40;99.90
32769;DHT22;23049;54.304;8.826;2022-11-20T01:57:59;1.40;99.90
32769;DHT22;23049;54.304;8.826;2022-11-20T02:00:25;1.40;99.90
32769;DHT22;23049;54.304;8.826;2022-11-20T02:02:55;1.40;99.90
32769;DHT22;23049;54.304;8.826;2022-11-20T02:07:47;1.40;99.90
32769;DHT22;23049;54.304;8.826;2022-11-20T02:10:13;1.40;99.90
32769;DHT22;23049;54.304;8.826;2022-11-20T02:12:39;1.40;99.90
32769;DHT22;23049;54.304;8.826;2022-11-20T02:15:23;1.40;99.90
32769;DHT22;23049;54.304;8.826;2022-11-20T02:17:49;1.40;99.90
32769;DHT22;23049;54.304;8.826;2022-11-20T02:20:14;1.50;99.90
32769;DHT22;23049;54.304;8.826;2022-11-20T02:22:47;1.50;99.90
32769;DHT22;23049;54.304;8.826;2022-11-20T02:25:16;1.50;99.90
32769;DHT22;23049;54.304;8.826;2022-11-20T02:27:42;1.40;99.90
32769;DHT22;23049;54.304;8.826;2022-11-20T02:30:08;1.40;99.90
32769;DHT22;23049;54.304;8.826;2022-11-20T02:32:36;1.40;99.90
32769;DHT22;23049;54.304;8.826;2022-11-20T02:37:42;1.40;99.90
32769;DHT22;23049;54.304;8.826;2022-11-20T02:40:08;1.40;99.90
32769;DHT22;23049;54.304;8.826;2022-11-20T02:42:35;1.40;99.90
32769;DHT22;23049;54.304;8.826;2022-11-20T02:45:00;1.40;99.90
32769;DHT22;23049;54.304;8.826;2022-11-20T02:47:26;1.40;99.90
32769;DHT22;23049;54.304;8.826;2022-11-20T02:49:51;1.40;99.90
32769;DHT22;23049;54.304;8.826;2022-11-20T02:52:16;1.50;99.90
32769;DHT22;23049;54.304;8.826;2022-11-20T02:54:42;1.40;99.90
32769;DHT22;23049;54.304;8.826;2022-11-20T02:57:07;1.40;99.90
32769;DHT22;23049;54.304;8.826;2022-11-20T02:59:33;1.40;99.90
32769;DHT22;23049;54.304;8.826;2022-11-20T03:01:58;1.40;99.90
32769;DHT22;23049;54.304;8.826;2022-11-20T03:04:24;1.50;99.90
32769;DHT22;23049;54.304;8.826;2022-11-20T03:06:49;1.50;99.90
32769;DHT22;23049;54.304;8.826;2022-11-20T03:09:15;1.50;99.90
32769;DHT22;23049;54.304;8.826;2022-11-20T03:11:40;1.50;99.90
32769;DHT22;23049;54.304;8.826;2022-11-20T03:14:06;1.50;99.90
32769;DHT22;23049;54.304;8.826;2022-11-20T03:16:31;1.50;99.90
32769;DHT22;23049;54.304;8.826;2022-11-20T03:18:57;1.50;99.90
32769;DHT22;23049;54.304;8.826;2022-11-20T03:21:23;1.50;99.90
32769;DHT22;23049;54.304;8.826;2022-11-20T03:23:49;1.50;99.90
32769;DHT22;23049;54.304;8.826;2022-11-20T03:26:15;1.50;99.90
32769;DHT22;23049;54.304;8.826;2022-11-20T03:28:42;1.50;99.90
32769;DHT22;23049;54.304;8.826;2022-11-20T03:31:12;1.50;99.90
32769;DHT22;23049;54.304;8.826;2022-11-20T03:33:39;1.50;99.90
32769;DHT22;23049;54.304;8.826;2022-11-20T03:36:05;1.50;99.90
32769;DHT22;23049;54.304;8.826;2022-11-20T03:38:31;1.50;99.90
32769;DHT22;23049;54.304;8.826;2022-11-20T03:41:04;1.50;99.90
32769;DHT22;23049;54.304;8.826;2022-11-20T03:43:30;1.50;99.90
32769;DHT22;23049;54.304;8.826;2022-11-20T03:45:55;1.50;99.90
32769;DHT22;23049;54.304;8.826;2022-11-20T03:48:21;1.50;99.90
32769;DHT22;23049;54.304;8.826;2022-11-20T03:50:46;1.50;99.90
32769;DHT22;23049;54.304;8.826;2022-11-20T03:53:15;1.50;99.90
32769;DHT22;23049;54.304;8.826;2022-11-20T03:55:41;1.50;99.90
32769;DHT22;23049;54.304;8.826;2022-11-20T03:58:07;1.40;99.90
32769;DHT22;23049;54.304;8.826;2022-11-20T04:00:32;1.50;99.90
32769;DHT22;23049;54.304;8.826;2022-11-20T04:02:58;1.40;99.90
32769;DHT22;23049;54.304;8.826;2022-11-20T04:05:24;1.40;99.90
32769;DHT22;23049;54.304;8.826;2022-11-20T04:07:50;1.40;99.90
32769;DHT22;23049;54.304;8.826;2022-11-20T04:10:15;1.40;99.90
32769;DHT22;23049;54.304;8.826;2022-11-20T04:12:41;1.40;99.90
32769;DHT22;23049;54.304;8.826;2022-11-20T04:15:06;1.40;99.90
32769;DHT22;23049;54.304;8.826;2022-11-20T04:17:32;1.40;99.90
32769;DHT22;23049;54.304;8.826;2022-11-20T04:19:57;1.40;99.90
32769;DHT22;23049;54.304;8.826;2022-11-20T04:22:23;1.40;99.90
32769;DHT22;23049;54.304;8.826;2022-11-20T04:24:48;1.40;99.90
32769;DHT22;23049;54.304;8.826;2022-11-20T04:27:14;1.40;99.90
32769;DHT22;23049;54.304;8.826;2022-11-20T04:29:39;1.40;99.90
32769;DHT22;23049;54.304;8.826;2022-11-20T04:32:05;1.40;99.90
32769;DHT22;23049;54.304;8.826;2022-11-20T04:34:30;1.30;99.90
32769;DHT22;23049;54.304;8.826;2022-11-20T04:36:56;1.30;99.90
32769;DHT22;23049;54.304;8.826;2022-11-20T04:39:21;1.30;99.90
32769;DHT22;23049;54.304;8.826;2022-11-20T04:41:47;1.30;99.90
32769;DHT22;23049;54.304;8.826;2022-11-20T04:44:12;1.30;99.90
32769;DHT22;23049;54.304;8.826;2022-11-20T04:46:39;1.20;99.90
32769;DHT22;23049;54.304;8.826;2022-11-20T04:49:05;1.20;99.90
32769;DHT22;23049;54.304;8.826;2022-11-20T04:51:31;1.20;99.90
32769;DHT22;23049;54.304;8.826;2022-11-20T04:53:56;1.20;99.90
32769;DHT22;23049;54.304;8.826;2022-11-20T04:56:22;1.20;99.90
32769;DHT22;23049;54.304;8.826;2022-11-20T04:58:47;1.30;99.90
32769;DHT22;23049;54.304;8.826;2022-11-20T05:01:14;1.30;99.90
32769;DHT22;23049;54.304;8.826;2022-11-20T05:03:40;1.30;99.90
32769;DHT22;23049;54.304;8.826;2022-11-20T05:06:08;1.30;99.90
32769;DHT22;23049;54.304;8.826;2022-11-20T05:08:34;1.40;99.90
32769;DHT22;23049;54.304;8.826;2022-11-20T05:11:04;1.40;99.90
32769;DHT22;23049;54.304;8.826;2022-11-20T05:13:30;1.40;99.90
32769;DHT22;23049;54.304;8.826;2022-11-20T05:15:55;1.40;99.90
32769;DHT22;23049;54.304;8.826;2022-11-20T05:18:21;1.40;99.90
32769;DHT22;23049;54.304;8.826;2022-11-20T05:20:46;1.40;99.90
32769;DHT22;23049;54.304;8.826;2022-11-20T05:23:12;1.40;99.90
32769;DHT22;23049;54.304;8.826;2022-11-20T05:25:37;1.40;99.90
32769;DHT22;23049;54.304;8.826;2022-11-20T05:28:03;1.40;99.90
32769;DHT22;23049;54.304;8.826;2022-11-20T05:30:28;1.40;99.90
32769;DHT22;23049;54.304;8.826;2022-11-20T05:32:54;1.40;99.90
32769;DHT22;23049;54.304;8.826;2022-11-20T05:35:19;1.40;99.90
32769;DHT22;23049;54.304;8.826;2022-11-20T05:37:45;1.40;99.90
32769;DHT22;23049;54.304;8.826;2022-11-20T05:40:11;1.30;99.90
32769;DHT22;23049;54.304;8.826;2022-11-20T05:42:36;1.30;99.90
32769;DHT22;23049;54.304;8.826;2022-11-20T05:45:03;1.20;99.90
32769;DHT22;23049;54.304;8.826;2022-11-20T05:47:31;1.20;99.90
32769;DHT22;23049;54.304;8.826;2022-11-20T05:49:57;1.10;99.90
32769;DHT22;23049;54.304;8.826;2022-11-20T05:52:22;1.00;99.90
32769;DHT22;23049;54.304;8.826;2022-11-20T05:54:48;1.00;99.90
32769;DHT22;23049;54.304;8.826;2022-11-20T05:57:14;0.90;99.90
32769;DHT22;23049;54.304;8.826;2022-11-20T05:59:39;0.90;99.90
32769;DHT22;23049;54.304;8.826;2022-11-20T06:02:05;0.80;99.90
32769;DHT22;23049;54.304;8.826;2022-11-20T06:04:30;0.70;99.90
32769;DHT22;23049;54.304;8.826;2022-11-20T06:06:56;0.60;99.90
32769;DHT22;23049;54.304;8.826;2022-11-20T06:09:21;0.50;99.90
32769;DHT22;23049;54.304;8.826;2022-11-20T06:11:47;0.50;99.90
32769;DHT22;23049;54.304;8.826;2022-11-20T06:14:12;0.40;99.90
32769;DHT22;23049;54.304;8.826;2022-11-20T06:16:38;0.30;99.90
32769;DHT22;23049;54.304;8.826;2022-11-20T06:19:03;0.30;99.90
32769;DHT22;23049;54.304;8.826;2022-11-20T06:21:29;0.20;99.90
32769;DHT22;23049;54.304;8.826;2022-11-20T06:23:54;0.20;99.90
32769;DHT22;23049;54.304;8.826;2022-11-20T06:26:21;0.10;99.90
32769;DHT22;23049;54.304;8.826;2022-11-20T06:28:47;0.10;99.90
32769;DHT22;23049;54.304;8.826;2022-11-20T06:31:13;0.00;99.90
32769;DHT22;23049;54.304;8.826;2022-11-20T06:33:39;0.00;99.90
32769;DHT22;23049;54.304;8.826;2022-11-20T06:36:05;0.00;99.90
32769;DHT22;23049;54.304;8.826;2022-11-20T06:38:31;-0.10;99.90
32769;DHT22;23049;54.304;8.826;2022-11-20T06:40:56;-0.10;99.90
32769;DHT22;23049;54.304;8.826;2022-11-20T06:43:22;-0.10;99.90
32769;DHT22;23049;54.304;8.826;2022-11-20T06:45:52;-0.10;99.90
32769;DHT22;23049;54.304;8.826;2022-11-20T06:48:18;-0.10;99.90
32769;DHT22;23049;54.304;8.826;2022-11-20T06:50:43;0.00;99.90
32769;DHT22;23049;54.304;8.826;2022-11-20T06:53:09;0.10;99.90
32769;DHT22;23049;54.304;8.826;2022-11-20T06:55:34;0.20;99.90
32769;DHT22;23049;54.304;8.826;2022-11-20T06:58:00;0.30;99.90
32769;DHT22;23049;54.304;8.826;2022-11-20T07:00:25;0.40;99.90
32769;DHT22;23049;54.304;8.826;2022-11-20T07:02:51;0.30;99.90
32769;DHT22;23049;54.304;8.826;2022-11-20T07:05:17;0.40;99.90
32769;DHT22;23049;54.304;8.826;2022-11-20T07:07:42;0.40;99.90
32769;DHT22;23049;54.304;8.826;2022-11-20T07:10:08;0.40;99.90
32769;DHT22;23049;54.304;8.826;2022-11-20T07:12:34;0.30;99.90
32769;DHT22;23049;54.304;8.826;2022-11-20T07:14:59;0.20;99.90
32769;DHT22;23049;54.304;8.826;2022-11-20T07:17:25;0.20;99.90
32769;DHT22;23049;54.304;8.826;2022-11-20T07:19:50;0.20;99.90
32769;DHT22;23049;54.304;8.826;2022-11-20T07:22:16;0.20;99.90
32769;DHT22;23049;54.304;8.826;2022-11-20T07:24:41;0.20;99.90
32769;DHT22;23049;54.304;8.826;2022-11-20T07:27:07;0.40;99.90
32769;DHT22;23049;54.304;8.826;2022-11-20T07:29:32;0.40;99.90
32769;DHT22;23049;54.304;8.826;2022-11-20T07:31:58;0.40;99.90
32769;DHT22;23049;54.304;8.826;2022-11-20T07:34:23;0.30;99.90
32769;DHT22;23049;54.304;8.826;2022-11-20T07:36:49;0.40;99.90
32769;DHT22;23049;54.304;8.826;2022-11-20T07:39:14;0.50;99.90
32769;DHT22;23049;54.304;8.826;2022-11-20T07:41:40;0.50;99.90
32769;DHT22;23049;54.304;8.826;2022-11-20T07:44:05;0.50;99.90
32769;DHT22;23049;54.304;8.826;2022-11-20T07:46:31;0.50;99.90
32769;DHT22;23049;54.304;8.826;2022-11-20T07:48:56;0.40;99.90
32769;DHT22;23049;54.304;8.826;2022-11-20T07:51:22;0.40;99.90
32769;DHT22;23049;54.304;8.826;2022-11-20T07:53:50;0.40;99.90
32769;DHT22;23049;54.304;8.826;2022-11-20T07:56:15;0.40;99.90
32769;DHT22;23049;54.304;8.826;2022-11-20T07:58:41;0.40;99.90
32769;DHT22;23049;54.304;8.826;2022-11-20T08:01:07;0.40;99.90
32769;DHT22;23049;54.304;8.826;2022-11-20T08:03:33;0.50;99.90
32769;DHT22;23049;54.304;8.826;2022-11-20T08:05:59;0.60;99.90
32769;DHT22;23049;54.304;8.826;2022-11-20T08:08:25;0.60;99.90
32769;DHT22;23049;54.304;8.826;2022-11-20T08:10:51;0.50;99.90
32769;DHT22;23049;54.304;8.826;2022-11-20T08:13:16;0.50;99.90
32769;DHT22;23049;54.304;8.826;2022-11-20T08:16:01;0.40;99.90
32769;DHT22;23049;54.304;8.826;2022-11-20T08:18:26;0.40;99.90
32769;DHT22;23049;54.304;8.826;2022-11-20T08:20:52;0.40;99.90
32769;DHT22;23049;54.304;8.826;2022-11-20T08:23:17;0.40;99.90
32769;DHT22;23049;54.304;8.826;2022-11-20T08:25:43;0.40;99.90
32769;DHT22;23049;54.304;8.826;2022-11-20T08:28:09;0.40;99.90
32769;DHT22;23049;54.304;8.826;2022-11-20T08:30:35;0.30;99.90
32769;DHT22;23049;54.304;8.826;2022-11-20T08:33:04;0.40;99.90
32769;DHT22;23049;54.304;8.826;2022-11-20T08:35:33;0.40;99.90
32769;DHT22;23049;54.304;8.826;2022-11-20T08:37:59;0.50;99.90
32769;DHT22;23049;54.304;8.826;2022-11-20T08:40:25;0.50;99.90
32769;DHT22;23049;54.304;8.826;2022-11-20T08:42:51;0.50;99.90
32769;DHT22;23049;54.304;8.826;2022-11-20T08:45:17;0.50;99.90
32769;DHT22;23049;54.304;8.826;2022-11-20T08:47:43;0.60;99.90
32769;DHT22;23049;54.304;8.826;2022-11-20T08:50:08;0.70;99.90
32769;DHT22;23049;54.304;8.826;2022-11-20T08:52:34;0.90;99.90
32769;DHT22;23049;54.304;8.826;2022-11-20T08:54:59;1.00;99.90
32769;DHT22;23049;54.304;8.826;2022-11-20T08:57:25;1.10;99.90
32769;DHT22;23049;54.304;8.826;2022-11-20T08:59:50;1.20;99.90
32769;DHT22;23049;54.304;8.826;2022-11-20T09:02:16;1.30;99.90
32769;DHT22;23049;54.304;8.826;2022-11-20T09:04:41;1.40;99.90
32769;DHT22;23049;54.304;8.826;2022-11-20T09:07:07;1.50;99.90
32769;DHT22;23049;54.304;8.826;2022-11-20T09:09:32;1.60;99.90
32769;DHT22;23049;54.304;8.826;2022-11-20T09:11:58;1.70;99.90
32769;DHT22;23049;54.304;8.826;2022-11-20T09:14:24;1.70;99.90
32769;DHT22;23049;54.304;8.826;2022-11-20T09:16:54;1.80;99.90
32769;DHT22;23049;54.304;8.826;2022-11-20T09:19:20;1.70;99.90
32769;DHT22;23049;54.304;8.826;2022-11-20T09:21:45;1.80;99.90
32769;DHT22;23049;54.304;8.826;2022-11-20T09:24:11;1.90;99.90
32769;DHT22;23049;54.304;8.826;2022-11-20T09:26:36;2.00;99.90
32769;DHT22;23049;54.304;8.826;2022-11-20T09:29:02;2.00;99.90
32769;DHT22;23049;54.304;8.826;2022-11-20T09:31:27;2.10;99.90
32769;DHT22;23049;54.304;8.826;2022-11-20T09:33:53;2.20;99.90
32769;DHT22;23049;54.304;8.826;2022-11-20T09:36:18;2.20;99.90
32769;DHT22;23049;54.304;8.826;2022-11-20T09:38:45;2.20;99.90
32769;DHT22;23049;54.304;8.826;2022-11-20T09:41:59;2.20;99.90
32769;DHT22;23049;54.304;8.826;2022-11-20T09:44:02;2.30;99.90
32769;DHT22;23049;54.304;8.826;2022-11-20T09:46:44;2.40;99.90
32769;DHT22;23049;54.304;8.826;2022-11-20T09:49:19;2.40;99.90
32769;DHT22;23049;54.304;8.826;2022-11-20T09:54:17;2.30;99.90
32769;DHT22;23049;54.304;8.826;2022-11-20T09:56:59;2.50;99.90
32769;DHT22;23049;54.304;8.826;2022-11-20T10:04:55;2.50;99.90
32769;DHT22;23049;54.304;8.826;2022-11-20T10:08:24;2.50;99.90
32769;DHT22;23049;54.304;8.826;2022-11-20T10:24:15;2.00;99.90
32769;DHT22;23049;54.304;8.826;2022-11-20T10:26:17;2.10;99.90
32769;DHT22;23049;54.304;8.826;2022-11-20T10:28:52;2.40;99.90
32769;DHT22;23049;54.304;8.826;2022-11-20T10:33:50;2.50;99.90
32769;DHT22;23049;54.304;8.826;2022-11-20T10:36:21;2.60;99.90
32769;DHT22;23049;54.304;8.826;2022-11-20T10:41:19;2.70;99.90
32769;DHT22;23049;54.304;8.826;2022-11-20T10:44:03;2.70;99.90
32769;DHT22;23049;54.304;8.826;2022-11-20T10:46:51;2.80;99.90
32769;DHT22;23049;54.304;8.826;2022-11-20T10:49:16;2.90;99.90
32769;DHT22;23049;54.304;8.826;2022-11-20T10:54:32;2.70;99.90
32769;DHT22;23049;54.304;8.826;2022-11-20T10:57:23;2.80;99.90
32769;DHT22;23049;54.304;8.826;2022-11-20T11:05:12;2.80;99.90
32769;DHT22;23049;54.304;8.826;2022-11-20T11:07:40;2.80;99.90
32769;DHT22;23049;54.304;8.826;2022-11-20T11:10:13;2.80;99.90
32769;DHT22;23049;54.304;8.826;2022-11-20T11:12:42;2.90;99.90
32769;DHT22;23049;54.304;8.826;2022-11-20T11:15:13;2.90;99.90
32769;DHT22;23049;54.304;8.826;2022-11-20T11:17:45;2.90;99.90
32769;DHT22;23049;54.304;8.826;2022-11-20T11:20:15;3.00;99.90
32769;DHT22;23049;54.304;8.826;2022-11-20T11:22:48;3.00;99.90
32769;DHT22;23049;54.304;8.826;2022-11-20T11:27:46;3.00;99.90
32769;DHT22;23049;54.304;8.826;2022-11-20T11:30:15;3.10;99.90
32769;DHT22;23049;54.304;8.826;2022-11-20T11:32:41;3.00;99.90
32769;DHT22;23049;54.304;8.826;2022-11-20T11:35:18;2.90;99.90
32769;DHT22;23049;54.304;8.826;2022-11-20T11:37:44;2.90;99.90
32769;DHT22;23049;54.304;8.826;2022-11-20T11:40:11;2.90;99.90
32769;DHT22;23049;54.304;8.826;2022-11-20T11:42:41;2.80;99.90
32769;DHT22;23049;54.304;8.826;2022-11-20T11:45:11;2.90;99.90
32769;DHT22;23049;54.304;8.826;2022-11-20T11:52:54;2.90;99.90
32769;DHT22;23049;54.304;8.826;2022-11-20T11:57:54;2.90;99.90
32769;DHT22;23049;54.304;8.826;2022-11-20T12:00:21;2.80;99.90
32769;DHT22;23049;54.304;8.826;2022-11-20T12:08:02;2.80;99.90
32769;DHT22;23049;54.304;8.826;2022-11-20T12:13:01;2.90;99.90
32769;DHT22;23049;54.304;8.826;2022-11-20T12:15:31;2.90;99.90
32769;DHT22;23049;54.304;8.826;2022-11-20T12:17:57;2.90;99.90
32769;DHT22;23049;54.304;8.826;2022-11-20T12:20:24;2.90;99.90
32769;DHT22;23049;54.304;8.826;2022-11-20T12:22:54;2.90;99.90
32769;DHT22;23049;54.304;8.826;2022-11-20T12:25:22;3.00;99.90
32769;DHT22;23049;54.304;8.826;2022-11-20T12:30:33;3.00;99.90
32769;DHT22;23049;54.304;8.826;2022-11-20T12:33:23;2.90;99.90
32769;DHT22;23049;54.304;8.826;2022-11-20T12:41:26;3.00;99.90
32769;DHT22;23049;54.304;8.826;2022-11-20T12:47:08;3.00;99.90
32769;DHT22;23049;54.304;8.826;2022-11-20T12:49:52;3.10;99.90
32769;DHT22;23049;54.304;8.826;2022-11-20T12:52:24;3.00;99.90
32769;DHT22;23049;54.304;8.826;2022-11-20T12:57:45;3.00;99.90
32769;DHT22;23049;54.304;8.826;2022-11-20T13:00:25;3.00;99.90
32769;DHT22;23049;54.304;8.826;2022-11-20T13:05:36;3.00;99.90
32769;DHT22;23049;54.304;8.826;2022-11-20T13:08:02;3.00;99.90
32769;DHT22;23049;54.304;8.826;2022-11-20T13:12:58;3.10;99.90
32769;DHT22;23049;54.304;8.826;2022-11-20T13:15:44;3.10;99.90
32769;DHT22;23049;54.304;8.826;2022-11-20T13:18:11;3.10;99.90
32769;DHT22;23049;54.304;8.826;2022-11-20T13:20:41;3.00;99.90
32769;DHT22;23049;54.304;8.826;2022-11-20T13:23:07;3.00;99.90
32769;DHT22;23049;54.304;8.826;2022-11-20T13:25:39;3.00;99.90
32769;DHT22;23049;54.304;8.826;2022-11-20T13:28:27;3.00;99.90
32769;DHT22;23049;54.304;8.826;2022-11-20T13:30:51;3.00;99.90
32769;DHT22;23049;54.304;8.826;2022-11-20T13:36:02;2.90;99.90
32769;DHT22;23049;54.304;8.826;2022-11-20T13:38:28;2.90;99.90
32769;DHT22;23049;54.304;8.826;2022-11-20T13:40:58;2.90;99.90
32769;DHT22;23049;54.304;8.826;2022-11-20T13:43:42;2.80;99.90
32769;DHT22;23049;54.304;8.826;2022-11-20T13:46:08;2.70;99.90
32769;DHT22;23049;54.304;8.826;2022-11-20T14:01:37;2.70;99.90
32769;DHT22;23049;54.304;8.826;2022-11-20T14:04:06;2.70;99.90
32769;DHT22;23049;54.304;8.826;2022-11-20T14:06:43;2.70;99.90
32769;DHT22;23049;54.304;8.826;2022-11-20T14:09:13;2.60;99.90
32769;DHT22;23049;54.304;8.826;2022-11-20T14:11:49;2.60;99.90
32769;DHT22;23049;54.304;8.826;2022-11-20T14:14:16;2.60;99.90
32769;DHT22;23049;54.304;8.826;2022-11-20T14:16:42;2.60;99.90
32769;DHT22;23049;54.304;8.826;2022-11-20T14:21:54;2.50;99.90
32769;DHT22;23049;54.304;8.826;2022-11-20T14:24:20;2.50;99.90
32769;DHT22;23049;54.304;8.826;2022-11-20T14:26:46;2.40;99.90
32769;DHT22;23049;54.304;8.826;2022-11-20T14:29:16;2.30;99.90
32769;DHT22;23049;54.304;8.826;2022-11-20T14:31:42;2.20;99.90
32769;DHT22;23049;54.304;8.826;2022-11-20T14:34:15;2.10;99.90
32769;DHT22;23049;54.304;8.826;2022-11-20T14:36:42;2.10;99.90
32769;DHT22;23049;54.304;8.826;2022-11-20T14:39:12;2.00;99.90
32769;DHT22;23049;54.304;8.826;2022-11-20T14:41:51;1.90;99.90
32769;DHT22;23049;54.304;8.826;2022-11-20T14:44:17;1.90;99.90
32769;DHT22;23049;54.304;8.826;2022-11-20T14:46:43;1.80;99.90
32769;DHT22;23049;54.304;8.826;2022-11-20T14:49:08;1.70;99.90
32769;DHT22;23049;54.304;8.826;2022-11-20T14:51:38;1.60;99.90
32769;DHT22;23049;54.304;8.826;2022-11-20T14:54:14;1.50;99.90
32769;DHT22;23049;54.304;8.826;2022-11-20T14:56:39;1.40;99.90
32769;DHT22;23049;54.304;8.826;2022-11-20T14:59:06;1.30;99.90
32769;DHT22;23049;54.304;8.826;2022-11-20T15:01:32;1.20;99.90
32769;DHT22;23049;54.304;8.826;2022-11-20T15:04:05;1.10;99.90
32769;DHT22;23049;54.304;8.826;2022-11-20T15:06:31;1.10;99.90
32769;DHT22;23049;54.304;8.826;2022-11-20T15:08:57;1.00;99.90
32769;DHT22;23049;54.304;8.826;2022-11-20T15:11:27;0.90;99.90
32769;DHT22;23049;54.304;8.826;2022-11-20T15:13:54;0.90;99.90
32769;DHT22;23049;54.304;8.826;2022-11-20T15:16:21;0.80;99.90
32769;DHT22;23049;54.304;8.826;2022-11-20T15:18:47;0.80;99.90
32769;DHT22;23049;54.304;8.826;2022-11-20T15:21:13;0.70;99.90
32769;DHT22;23049;54.304;8.826;2022-11-20T15:23:39;0.60;99.90
32769;DHT22;23049;54.304;8.826;2022-11-20T15:26:05;0.60;99.90
32769;DHT22;23049;54.304;8.826;2022-11-20T15:30:57;0.70;99.90
32769;DHT22;23049;54.304;8.826;2022-11-20T15:33:22;0.70;99.90
32769;DHT22;23049;54.304;8.826;2022-11-20T15:35:48;0.70;99.90
32769;DHT22;23049;54.304;8.826;2022-11-20T15:38:13;0.60;99.90
32769;DHT22;23049;54.304;8.826;2022-11-20T15:40:39;0.60;99.90
32769;DHT22;23049;54.304;8.826;2022-11-20T15:43:05;0.60;99.90
32769;DHT22;23049;54.304;8.826;2022-11-20T15:45:49;0.50;99.90
32769;DHT22;23049;54.304;8.826;2022-11-20T15:48:19;0.40;99.90
32769;DHT22;23049;54.304;8.826;2022-11-20T15:50:52;0.30;99.90
32769;DHT22;23049;54.304;8.826;2022-11-20T15:53:21;0.30;99.90
32769;DHT22;23049;54.304;8.826;2022-11-20T15:55:47;0.20;99.90
32769;DHT22;23049;54.304;8.826;2022-11-20T15:58:13;0.10;99.90
32769;DHT22;23049;54.304;8.826;2022-11-20T16:00:38;0.10;99.90
32769;DHT22;23049;54.304;8.826;2022-11-20T16:03:04;0.30;99.90
32769;DHT22;23049;54.304;8.826;2022-11-20T16:05:30;0.50;99.90
32769;DHT22;23049;54.304;8.826;2022-11-20T16:07:56;0.30;99.90
32769;DHT22;23049;54.304;8.826;2022-11-20T16:10:22;0.20;99.90
32769;DHT22;23049;54.304;8.826;2022-11-20T16:12:47;0.20;99.90
32769;DHT22;23049;54.304;8.826;2022-11-20T16:15:31;0.20;99.90
32769;DHT22;23049;54.304;8.826;2022-11-20T16:18:17;0.00;99.90
32769;DHT22;23049;54.304;8.826;2022-11-20T16:20:43;-0.10;99.90
32769;DHT22;23049;54.304;8.826;2022-11-20T16:23:08;-0.30;99.90
32769;DHT22;23049;54.304;8.826;2022-11-20T16:25:34;-0.40;99.90
32769;DHT22;23049;54.304;8.826;2022-11-20T16:28:00;-0.50;99.90
32769;DHT22;23049;54.304;8.826;2022-11-20T16:30:26;-0.50;99.90
32769;DHT22;23049;54.304;8.826;2022-11-20T16:32:51;-0.40;99.90
32769;DHT22;23049;54.304;8.826;2022-11-20T16:35:17;-0.40;99.90
32769;DHT22;23049;54.304;8.826;2022-11-20T16:37:42;-0.40;99.90
32769;DHT22;23049;54.304;8.826;2022-11-20T16:40:08;-0.40;99.90
32769;DHT22;23049;54.304;8.826;2022-11-20T16:42:34;-0.40;99.90
32769;DHT22;23049;54.304;8.826;2022-11-20T16:45:00;-0.40;99.90
32769;DHT22;23049;54.304;8.826;2022-11-20T16:47:26;-0.50;99.90
32769;DHT22;23049;54.304;8.826;2022-11-20T16:49:51;-0.50;99.90
32769;DHT22;23049;54.304;8.826;2022-11-20T16:52:17;-0.50;99.90
32769;DHT22;23049;54.304;8.826;2022-11-20T16:54:42;-0.50;99.90
32769;DHT22;23049;54.304;8.826;2022-11-20T16:57:08;-0.50;99.90
32769;DHT22;23049;54.304;8.826;2022-11-20T16:59:33;-0.40;99.90
32769;DHT22;23049;54.304;8.826;2022-11-20T17:01:59;-0.40;99.90
32769;DHT22;23049;54.304;8.826;2022-11-20T17:04:24;-0.40;99.90
32769;DHT22;23049;54.304;8.826;2022-11-20T17:06:50;-0.50;99.90
32769;DHT22;23049;54.304;8.826;2022-11-20T17:09:15;-0.20;99.90
32769;DHT22;23049;54.304;8.826;2022-11-20T17:11:41;0.10;99.90
32769;DHT22;23049;54.304;8.826;2022-11-20T17:14:07;0.10;99.90
32769;DHT22;23049;54.304;8.826;2022-11-20T17:16:33;0.20;99.90
32769;DHT22;23049;54.304;8.826;2022-11-20T17:18:59;0.20;99.90
32769;DHT22;23049;54.304;8.826;2022-11-20T17:21:24;0.20;99.90
32769;DHT22;23049;54.304;8.826;2022-11-20T17:23:50;0.20;99.90
32769;DHT22;23049;54.304;8.826;2022-11-20T17:26:17;0.00;99.90
32769;DHT22;23049;54.304;8.826;2022-11-20T17:28:43;-0.10;99.90